sensor_id;sensor_type;location;lat;lon;timestamp;temperature;humidity
39655;DHT22;25336;59.944;11.010;2023-07-16T00:02:10;18.50;74.40
39655;DHT22;25336;59.944;11.010;2023-07-16T00:04:35;18.50;75.20
39655;DHT22;25336;59.944;11.010;2023-07-16T00:07:01;18.50;75.30
39655;DHT22;25336;59.944;11.010;2023-07-16T00:09:27;18.50;75.40
39655;DHT22;25336;59.944;11.010;2023-07-16T00:11:53;18.50;75.40
39655;DHT22;25336;59.944;11.010;2023-07-16T00:14:19;18.60;75.50
39655;DHT22;25336;59.944;11.010;2023-07-16T00:16:45;18.60;75.60
39655;DHT22;25336;59.944;11.010;2023-07-16T00:19:11;18.60;75.60
39655;DHT22;25336;59.944;11.010;2023-07-16T00:21:38;18.60;75.70
39655;DHT22;25336;59.944;11.010;2023-07-16T00:24:04;18.60;75.80
39655;DHT22;25336;59.944;11.010;2023-07-16T00:26:30;18.60;75.80
39655;DHT22;25336;59.944;11.010;2023-07-16T00:28:56;18.70;75.70
39655;DHT22;25336;59.944;11.010;2023-07-16T00:31:22;18.70;75.60
39655;DHT22;25336;59.944;11.010;2023-07-16T00:33:47;18.70;75.70
39655;DHT22;25336;59.944;11.010;2023-07-16T00:36:13;18.70;75.50
39655;DHT22;25336;59.944;11.010;2023-07-16T00:38:38;18.70;75.60
39655;DHT22;25336;59.944;11.010;2023-07-16T00:41:08;18.70;75.70
39655;DHT22;25336;59.944;11.010;2023-07-16T00:43:33;18.70;75.50
39655;DHT22;25336;59.944;11.010;2023-07-16T00:45:59;18.70;75.50
39655;DHT22;25336;59.944;11.010;2023-07-16T00:48:25;18.70;75.70
39655;DHT22;25336;59.944;11.010;2023-07-16T00:50:52;18.70;75.70
39655;DHT22;25336;59.944;11.010;2023-07-16T00:53:19;18.70;75.80
39655;DHT22;25336;59.944;11.010;2023-07-16T00:55:45;18.70;75.80
39655;DHT22;25336;59.944;11.010;2023-07-16T00:58:11;18.70;75.80
39655;DHT22;25336;59.944;11.010;2023-07-16T01:00:39;18.70;75.80
39655;DHT22;25336;59.944;11.010;2023-07-16T01:03:10;18.70;75.80
39655;DHT22;25336;59.944;11.010;2023-07-16T01:06:04;18.80;76.10
39655;DHT22;25336;59.944;11.010;2023-07-16T01:08:44;18.80;76.00
39655;DHT22;25336;59.944;11.010;2023-07-16T01:11:12;18.80;76.10
39655;DHT22;25336;59.944;11.010;2023-07-16T01:13:38;18.70;75.70
39655;DHT22;25336;59.944;11.010;2023-07-16T01:16:04;18.80;75.10
39655;DHT22;25336;59.944;11.010;2023-07-16T01:18:30;18.80;75.80
39655;DHT22;25336;59.944;11.010;2023-07-16T01:20:55;18.80;76.10
39655;DHT22;25336;59.944;11.010;2023-07-16T01:31:14;18.80;76.80
39655;DHT22;25336;59.944;11.010;2023-07-16T01:33:41;18.80;76.50
39655;DHT22;25336;59.944;11.010;2023-07-16T01:36:07;18.80;76.40
39655;DHT22;25336;59.944;11.010;2023-07-16T01:38:35;18.80;76.20
39655;DHT22;25336;59.944;11.010;2023-07-16T01:41:01;18.80;76.00
39655;DHT22;25336;59.944;11.010;2023-07-16T01:43:27;18.80;75.90
39655;DHT22;25336;59.944;11.010;2023-07-16T01:45:53;18.80;75.80
39655;DHT22;25336;59.944;11.010;2023-07-16T01:48:34;18.80;75.70
39655;DHT22;25336;59.944;11.010;2023-07-16T01:51:01;19.80;76.50
39655;DHT22;25336;59.944;11.010;2023-07-16T01:53:27;18.80;75.40
39655;DHT22;25336;59.944;11.010;2023-07-16T01:55:52;18.80;75.30
39655;DHT22;25336;59.944;11.010;2023-07-16T01:58:18;18.80;75.30
39655;DHT22;25336;59.944;11.010;2023-07-16T02:00:44;18.80;75.10
39655;DHT22;25336;59.944;11.010;2023-07-16T02:03:09;18.80;75.00
39655;DHT22;25336;59.944;11.010;2023-07-16T02:05:35;18.80;74.80
39655;DHT22;25336;59.944;11.010;2023-07-16T02:08:01;18.80;74.70
39655;DHT22;25336;59.944;11.010;2023-07-16T02:10:26;18.80;74.60
39655;DHT22;25336;59.944;11.010;2023-07-16T02:12:52;19.00;74.60
39655;DHT22;25336;59.944;11.010;2023-07-16T02:15:18;18.80;74.50
39655;DHT22;25336;59.944;11.010;2023-07-16T02:17:44;18.70;74.50
39655;DHT22;25336;59.944;11.010;2023-07-16T02:20:11;18.70;74.60
39655;DHT22;25336;59.944;11.010;2023-07-16T02:22:37;18.70;74.50
39655;DHT22;25336;59.944;11.010;2023-07-16T02:25:03;18.70;74.50
39655;DHT22;25336;59.944;11.010;2023-07-16T02:27:29;18.70;74.50
39655;DHT22;25336;59.944;11.010;2023-07-16T02:29:55;18.70;74.50
39655;DHT22;25336;59.944;11.010;2023-07-16T02:32:21;18.70;74.50
39655;DHT22;25336;59.944;11.010;2023-07-16T02:34:46;18.70;74.40
39655;DHT22;25336;59.944;11.010;2023-07-16T02:37:12;18.70;74.40
39655;DHT22;25336;59.944;11.010;2023-07-16T02:39:42;18.70;74.20
39655;DHT22;25336;59.944;11.010;2023-07-16T02:42:08;18.70;74.20
39655;DHT22;25336;59.944;11.010;2023-07-16T02:44:34;18.70;74.20
39655;DHT22;25336;59.944;11.010;2023-07-16T02:47:03;18.70;74.20
39655;DHT22;25336;59.944;11.010;2023-07-16T02:49:29;18.70;74.10
39655;DHT22;25336;59.944;11.010;2023-07-16T02:51:55;18.70;74.10
39655;DHT22;25336;59.944;11.010;2023-07-16T02:54:20;18.60;74.10
39655;DHT22;25336;59.944;11.010;2023-07-16T02:56:47;18.60;74.20
39655;DHT22;25336;59.944;11.010;2023-07-16T02:59:12;18.60;74.10
39655;DHT22;25336;59.944;11.010;2023-07-16T03:01:38;18.60;74.80
39655;DHT22;25336;59.944;11.010;2023-07-16T03:04:04;18.60;74.10
39655;DHT22;25336;59.944;11.010;2023-07-16T03:06:29;18.60;74.70
39655;DHT22;25336;59.944;11.010;2023-07-16T03:08:55;18.60;74.10
39655;DHT22;25336;59.944;11.010;2023-07-16T03:11:21;18.60;74.80
39655;DHT22;25336;59.944;11.010;2023-07-16T03:13:46;18.60;73.90
39655;DHT22;25336;59.944;11.010;2023-07-16T03:16:12;18.60;73.90
39655;DHT22;25336;59.944;11.010;2023-07-16T03:18:37;18.60;73.90
39655;DHT22;25336;59.944;11.010;2023-07-16T03:21:03;18.60;73.90
39655;DHT22;25336;59.944;11.010;2023-07-16T03:23:29;18.50;73.90
39655;DHT22;25336;59.944;11.010;2023-07-16T03:25:55;18.50;73.90
39655;DHT22;25336;59.944;11.010;2023-07-16T03:28:20;18.50;73.90
39655;DHT22;25336;59.944;11.010;2023-07-16T03:30:47;18.50;74.10
39655;DHT22;25336;59.944;11.010;2023-07-16T03:33:13;18.50;74.30
39655;DHT22;25336;59.944;11.010;2023-07-16T03:35:39;18.50;74.40
39655;DHT22;25336;59.944;11.010;2023-07-16T03:38:04;18.50;74.60
39655;DHT22;25336;59.944;11.010;2023-07-16T03:40:30;18.40;74.60
39655;DHT22;25336;59.944;11.010;2023-07-16T03:42:56;18.40;74.70
39655;DHT22;25336;59.944;11.010;2023-07-16T03:45:21;18.40;74.70
39655;DHT22;25336;59.944;11.010;2023-07-16T03:47:47;18.50;74.80
39655;DHT22;25336;59.944;11.010;2023-07-16T03:50:13;18.70;75.00
39655;DHT22;25336;59.944;11.010;2023-07-16T03:52:38;18.50;74.90
39655;DHT22;25336;59.944;11.010;2023-07-16T03:55:04;18.50;75.20
39655;DHT22;25336;59.944;11.010;2023-07-16T03:57:30;18.50;75.00
39655;DHT22;25336;59.944;11.010;2023-07-16T03:59:56;18.50;75.00
39655;DHT22;25336;59.944;11.010;2023-07-16T04:02:23;18.50;75.00
39655;DHT22;25336;59.944;11.010;2023-07-16T04:04:48;18.50;74.80
39655;DHT22;25336;59.944;11.010;2023-07-16T04:07:14;18.50;74.80
39655;DHT22;25336;59.944;11.010;2023-07-16T04:09:40;18.50;74.80
39655;DHT22;25336;59.944;11.010;2023-07-16T04:12:06;18.50;74.70
39655;DHT22;25336;59.944;11.010;2023-07-16T04:14:32;18.50;74.80
39655;DHT22;25336;59.944;11.010;2023-07-16T04:16:58;18.60;74.90
39655;DHT22;25336;59.944;11.010;2023-07-16T04:19:24;18.60;74.80
39655;DHT22;25336;59.944;11.010;2023-07-16T04:21:50;18.50;74.80
39655;DHT22;25336;59.944;11.010;2023-07-16T04:24:15;18.50;74.80
39655;DHT22;25336;59.944;11.010;2023-07-16T04:26:41;18.60;74.90
39655;DHT22;25336;59.944;11.010;2023-07-16T04:29:07;18.60;74.90
39655;DHT22;25336;59.944;11.010;2023-07-16T04:31:32;18.60;75.00
39655;DHT22;25336;59.944;11.010;2023-07-16T04:33:58;18.60;75.00
39655;DHT22;25336;59.944;11.010;2023-07-16T04:36:24;18.60;75.00
39655;DHT22;25336;59.944;11.010;2023-07-16T04:38:50;18.60;74.90
39655;DHT22;25336;59.944;11.010;2023-07-16T04:41:16;18.70;75.00
39655;DHT22;25336;59.944;11.010;2023-07-16T04:43:42;18.60;74.90
39655;DHT22;25336;59.944;11.010;2023-07-16T04:46:07;18.70;74.90
39655;DHT22;25336;59.944;11.010;2023-07-16T04:48:33;18.70;74.90
39655;DHT22;25336;59.944;11.010;2023-07-16T04:50:59;18.70;75.00
39655;DHT22;25336;59.944;11.010;2023-07-16T04:53:25;18.70;74.90
39655;DHT22;25336;59.944;11.010;2023-07-16T04:55:50;18.70;74.90
39655;DHT22;25336;59.944;11.010;2023-07-16T04:58:16;18.70;74.80
39655;DHT22;25336;59.944;11.010;2023-07-16T05:00:42;18.70;74.80
39655;DHT22;25336;59.944;11.010;2023-07-16T05:03:08;18.70;74.80
39655;DHT22;25336;59.944;11.010;2023-07-16T05:05:34;18.70;74.70
39655;DHT22;25336;59.944;11.010;2023-07-16T05:08:00;18.70;74.60
39655;DHT22;25336;59.944;11.010;2023-07-16T05:10:27;18.70;75.30
39655;DHT22;25336;59.944;11.010;2023-07-16T05:12:52;18.70;74.60
39655;DHT22;25336;59.944;11.010;2023-07-16T05:15:18;18.70;74.50
39655;DHT22;25336;59.944;11.010;2023-07-16T05:17:46;18.80;74.50
39655;DHT22;25336;59.944;11.010;2023-07-16T05:20:12;18.70;74.40
39655;DHT22;25336;59.944;11.010;2023-07-16T05:22:37;18.80;74.40
39655;DHT22;25336;59.944;11.010;2023-07-16T05:25:03;18.80;74.40
39655;DHT22;25336;59.944;11.010;2023-07-16T05:27:29;18.80;74.50
39655;DHT22;25336;59.944;11.010;2023-07-16T05:29:55;18.80;74.40
39655;DHT22;25336;59.944;11.010;2023-07-16T05:32:21;18.80;74.10
39655;DHT22;25336;59.944;11.010;2023-07-16T05:34:47;18.80;74.10
39655;DHT22;25336;59.944;11.010;2023-07-16T05:37:13;18.80;74.00
39655;DHT22;25336;59.944;11.010;2023-07-16T05:39:38;18.90;74.00
39655;DHT22;25336;59.944;11.010;2023-07-16T05:42:05;18.90;74.10
39655;DHT22;25336;59.944;11.010;2023-07-16T05:44:30;18.90;74.00
39655;DHT22;25336;59.944;11.010;2023-07-16T05:46:56;18.90;73.90
39655;DHT22;25336;59.944;11.010;2023-07-16T05:49:23;18.90;73.80
39655;DHT22;25336;59.944;11.010;2023-07-16T05:51:49;18.90;73.60
39655;DHT22;25336;59.944;11.010;2023-07-16T05:54:14;18.90;73.50
39655;DHT22;25336;59.944;11.010;2023-07-16T05:56:40;18.90;73.40
39655;DHT22;25336;59.944;11.010;2023-07-16T05:59:06;18.90;73.20
39655;DHT22;25336;59.944;11.010;2023-07-16T06:01:31;18.90;73.10
39655;DHT22;25336;59.944;11.010;2023-07-16T06:03:57;19.00;73.00
39655;DHT22;25336;59.944;11.010;2023-07-16T06:06:23;18.90;73.00
39655;DHT22;25336;59.944;11.010;2023-07-16T06:08:48;18.90;73.80
39655;DHT22;25336;59.944;11.010;2023-07-16T06:11:14;18.90;73.00
39655;DHT22;25336;59.944;11.010;2023-07-16T06:13:40;18.90;72.90
39655;DHT22;25336;59.944;11.010;2023-07-16T06:16:05;19.20;73.00
39655;DHT22;25336;59.944;11.010;2023-07-16T06:18:31;19.00;73.00
39655;DHT22;25336;59.944;11.010;2023-07-16T06:20:57;19.00;72.80
39655;DHT22;25336;59.944;11.010;2023-07-16T06:23:23;19.00;72.90
39655;DHT22;25336;59.944;11.010;2023-07-16T06:25:53;19.00;72.80
39655;DHT22;25336;59.944;11.010;2023-07-16T06:28:18;19.00;72.90
39655;DHT22;25336;59.944;11.010;2023-07-16T06:30:44;19.00;72.80
39655;DHT22;25336;59.944;11.010;2023-07-16T06:33:10;19.00;72.70
39655;DHT22;25336;59.944;11.010;2023-07-16T06:35:35;19.00;72.60
39655;DHT22;25336;59.944;11.010;2023-07-16T06:38:01;19.00;72.50
39655;DHT22;25336;59.944;11.010;2023-07-16T06:40:28;19.00;72.50
39655;DHT22;25336;59.944;11.010;2023-07-16T06:42:54;19.00;72.50
39655;DHT22;25336;59.944;11.010;2023-07-16T06:45:20;19.10;72.50
39655;DHT22;25336;59.944;11.010;2023-07-16T06:47:45;19.30;72.60
39655;DHT22;25336;59.944;11.010;2023-07-16T06:50:11;19.10;72.60
39655;DHT22;25336;59.944;11.010;2023-07-16T06:52:37;19.10;72.60
39655;DHT22;25336;59.944;11.010;2023-07-16T06:55:03;19.10;72.60
39655;DHT22;25336;59.944;11.010;2023-07-16T06:57:29;19.10;72.60
39655;DHT22;25336;59.944;11.010;2023-07-16T06:59:54;19.20;72.60
39655;DHT22;25336;59.944;11.010;2023-07-16T07:02:20;19.20;72.70
39655;DHT22;25336;59.944;11.010;2023-07-16T07:04:46;19.20;72.60
39655;DHT22;25336;59.944;11.010;2023-07-16T07:07:12;19.20;72.60
39655;DHT22;25336;59.944;11.010;2023-07-16T07:09:37;19.30;72.80
39655;DHT22;25336;59.944;11.010;2023-07-16T07:12:03;19.30;72.80
39655;DHT22;25336;59.944;11.010;2023-07-16T07:14:29;19.30;73.00
39655;DHT22;25336;59.944;11.010;2023-07-16T07:16:55;19.40;73.00
39655;DHT22;25336;59.944;11.010;2023-07-16T07:19:20;19.40;72.70
39655;DHT22;25336;59.944;11.010;2023-07-16T07:21:46;19.50;72.70
39655;DHT22;25336;59.944;11.010;2023-07-16T07:24:12;19.50;72.30
39655;DHT22;25336;59.944;11.010;2023-07-16T07:26:38;19.50;72.00
39655;DHT22;25336;59.944;11.010;2023-07-16T07:29:03;19.60;72.20
39655;DHT22;25336;59.944;11.010;2023-07-16T07:31:29;19.60;72.20
39655;DHT22;25336;59.944;11.010;2023-07-16T07:33:55;19.70;72.10
39655;DHT22;25336;59.944;11.010;2023-07-16T07:36:22;19.80;72.10
39655;DHT22;25336;59.944;11.010;2023-07-16T07:38:48;19.80;72.00
39655;DHT22;25336;59.944;11.010;2023-07-16T07:41:14;19.90;71.70
39655;DHT22;25336;59.944;11.010;2023-07-16T07:43:39;19.90;71.60
39655;DHT22;25336;59.944;11.010;2023-07-16T07:46:05;20.00;72.30
39655;DHT22;25336;59.944;11.010;2023-07-16T07:48:31;20.00;71.20
39655;DHT22;25336;59.944;11.010;2023-07-16T07:50:57;20.10;71.00
39655;DHT22;25336;59.944;11.010;2023-07-16T07:53:23;20.10;70.70
39655;DHT22;25336;59.944;11.010;2023-07-16T07:55:48;20.20;70.70
39655;DHT22;25336;59.944;11.010;2023-07-16T07:58:14;20.20;70.70
39655;DHT22;25336;59.944;11.010;2023-07-16T08:00:39;20.30;70.60
39655;DHT22;25336;59.944;11.010;2023-07-16T08:03:05;20.30;70.50
39655;DHT22;25336;59.944;11.010;2023-07-16T08:05:31;20.30;70.40
39655;DHT22;25336;59.944;11.010;2023-07-16T08:07:57;20.40;70.20
39655;DHT22;25336;59.944;11.010;2023-07-16T08:10:23;20.40;70.10
39655;DHT22;25336;59.944;11.010;2023-07-16T08:12:48;20.40;70.00
39655;DHT22;25336;59.944;11.010;2023-07-16T08:15:14;20.50;70.00
39655;DHT22;25336;59.944;11.010;2023-07-16T08:17:43;20.50;69.90
39655;DHT22;25336;59.944;11.010;2023-07-16T08:20:10;20.60;69.70
39655;DHT22;25336;59.944;11.010;2023-07-16T08:22:36;20.60;69.70
39655;DHT22;25336;59.944;11.010;2023-07-16T08:25:02;20.60;69.20
39655;DHT22;25336;59.944;11.010;2023-07-16T08:27:29;20.70;68.80
39655;DHT22;25336;59.944;11.010;2023-07-16T08:29:55;20.70;68.40
39655;DHT22;25336;59.944;11.010;2023-07-16T08:32:20;20.70;68.30
39655;DHT22;25336;59.944;11.010;2023-07-16T08:34:47;20.80;68.00
39655;DHT22;25336;59.944;11.010;2023-07-16T08:37:13;20.80;68.30
39655;DHT22;25336;59.944;11.010;2023-07-16T08:39:39;20.80;68.60
39655;DHT22;25336;59.944;11.010;2023-07-16T08:42:05;21.30;69.50
39655;DHT22;25336;59.944;11.010;2023-07-16T08:44:31;21.00;69.60
39655;DHT22;25336;59.944;11.010;2023-07-16T08:46:57;21.10;70.20
39655;DHT22;25336;59.944;11.010;2023-07-16T08:49:23;21.20;68.90
39655;DHT22;25336;59.944;11.010;2023-07-16T08:51:52;21.30;68.50
39655;DHT22;25336;59.944;11.010;2023-07-16T08:54:19;21.50;67.90
39655;DHT22;25336;59.944;11.010;2023-07-16T08:56:45;21.60;67.20
39655;DHT22;25336;59.944;11.010;2023-07-16T08:59:14;21.60;66.60
39655;DHT22;25336;59.944;11.010;2023-07-16T09:01:40;21.60;66.40
39655;DHT22;25336;59.944;11.010;2023-07-16T09:04:06;21.70;66.60
39655;DHT22;25336;59.944;11.010;2023-07-16T09:06:32;21.70;67.80
39655;DHT22;25336;59.944;11.010;2023-07-16T09:08:58;21.70;67.10
39655;DHT22;25336;59.944;11.010;2023-07-16T09:11:23;21.80;67.10
39655;DHT22;25336;59.944;11.010;2023-07-16T09:13:49;21.90;66.50
39655;DHT22;25336;59.944;11.010;2023-07-16T09:16:17;21.90;65.90
39655;DHT22;25336;59.944;11.010;2023-07-16T09:18:43;22.00;65.00
39655;DHT22;25336;59.944;11.010;2023-07-16T09:21:11;22.00;64.90
39655;DHT22;25336;59.944;11.010;2023-07-16T09:23:37;22.00;64.20
39655;DHT22;25336;59.944;11.010;2023-07-16T09:26:03;22.00;64.10
39655;DHT22;25336;59.944;11.010;2023-07-16T09:28:34;22.00;64.40
39655;DHT22;25336;59.944;11.010;2023-07-16T09:31:07;22.00;64.20
39655;DHT22;25336;59.944;11.010;2023-07-16T09:33:33;22.10;63.80
39655;DHT22;25336;59.944;11.010;2023-07-16T09:35:59;22.00;64.30
39655;DHT22;25336;59.944;11.010;2023-07-16T09:38:27;22.10;63.70
39655;DHT22;25336;59.944;11.010;2023-07-16T09:40:55;22.00;63.30
39655;DHT22;25336;59.944;11.010;2023-07-16T09:43:21;22.00;63.10
39655;DHT22;25336;59.944;11.010;2023-07-16T09:45:47;22.00;63.60
39655;DHT22;25336;59.944;11.010;2023-07-16T09:48:13;22.00;63.20
39655;DHT22;25336;59.944;11.010;2023-07-16T09:50:45;22.00;63.50
39655;DHT22;25336;59.944;11.010;2023-07-16T09:53:15;22.10;63.50
39655;DHT22;25336;59.944;11.010;2023-07-16T09:55:44;22.20;63.30
39655;DHT22;25336;59.944;11.010;2023-07-16T09:58:10;22.20;62.80
39655;DHT22;25336;59.944;11.010;2023-07-16T10:00:37;22.20;61.70
39655;DHT22;25336;59.944;11.010;2023-07-16T10:03:07;22.20;61.90
39655;DHT22;25336;59.944;11.010;2023-07-16T10:05:36;22.20;62.40
39655;DHT22;25336;59.944;11.010;2023-07-16T10:08:02;22.20;62.30
39655;DHT22;25336;59.944;11.010;2023-07-16T10:10:43;22.90;62.60
39655;DHT22;25336;59.944;11.010;2023-07-16T10:13:12;22.20;61.30
39655;DHT22;25336;59.944;11.010;2023-07-16T10:15:38;22.20;61.40
39655;DHT22;25336;59.944;11.010;2023-07-16T10:18:05;22.30;61.30
39655;DHT22;25336;59.944;11.010;2023-07-16T10:20:34;22.30;60.40
39655;DHT22;25336;59.944;11.010;2023-07-16T10:23:14;22.30;60.00
39655;DHT22;25336;59.944;11.010;2023-07-16T10:25:41;22.40;59.70
39655;DHT22;25336;59.944;11.010;2023-07-16T10:28:22;22.50;60.30
39655;DHT22;25336;59.944;11.010;2023-07-16T10:30:49;22.50;60.30
39655;DHT22;25336;59.944;11.010;2023-07-16T10:33:15;22.60;60.20
39655;DHT22;25336;59.944;11.010;2023-07-16T10:35:50;22.70;59.90
39655;DHT22;25336;59.944;11.010;2023-07-16T10:38:15;22.70;59.40
39655;DHT22;25336;59.944;11.010;2023-07-16T10:40:42;22.70;59.40
39655;DHT22;25336;59.944;11.010;2023-07-16T10:43:08;22.80;59.60
39655;DHT22;25336;59.944;11.010;2023-07-16T10:45:34;22.90;59.80
39655;DHT22;25336;59.944;11.010;2023-07-16T10:47:59;22.90;59.80
39655;DHT22;25336;59.944;11.010;2023-07-16T10:50:25;23.00;60.10
39655;DHT22;25336;59.944;11.010;2023-07-16T10:52:56;23.10;60.50
39655;DHT22;25336;59.944;11.010;2023-07-16T10:55:22;23.20;59.60
39655;DHT22;25336;59.944;11.010;2023-07-16T10:57:48;23.30;59.60
39655;DHT22;25336;59.944;11.010;2023-07-16T11:00:15;23.30;58.90
39655;DHT22;25336;59.944;11.010;2023-07-16T11:02:42;23.30;58.30
39655;DHT22;25336;59.944;11.010;2023-07-16T11:05:14;23.30;58.00
39655;DHT22;25336;59.944;11.010;2023-07-16T11:07:46;23.30;57.50
39655;DHT22;25336;59.944;11.010;2023-07-16T11:10:14;23.30;58.10
39655;DHT22;25336;59.944;11.010;2023-07-16T11:12:42;23.20;57.70
39655;DHT22;25336;59.944;11.010;2023-07-16T11:15:08;23.20;57.60
39655;DHT22;25336;59.944;11.010;2023-07-16T11:17:36;23.20;57.40
39655;DHT22;25336;59.944;11.010;2023-07-16T11:20:02;23.20;57.60
39655;DHT22;25336;59.944;11.010;2023-07-16T11:22:29;23.10;57.90
39655;DHT22;25336;59.944;11.010;2023-07-16T11:24:55;23.20;58.20
39655;DHT22;25336;59.944;11.010;2023-07-16T11:27:26;23.00;58.40
39655;DHT22;25336;59.944;11.010;2023-07-16T11:30:00;23.00;58.30
39655;DHT22;25336;59.944;11.010;2023-07-16T11:32:37;22.90;58.70
39655;DHT22;25336;59.944;11.010;2023-07-16T11:35:04;22.80;59.40
39655;DHT22;25336;59.944;11.010;2023-07-16T11:37:32;22.80;59.30
39655;DHT22;25336;59.944;11.010;2023-07-16T11:42:36;22.70;58.80
39655;DHT22;25336;59.944;11.010;2023-07-16T11:45:02;22.60;58.90
39655;DHT22;25336;59.944;11.010;2023-07-16T11:47:28;22.40;58.80
39655;DHT22;25336;59.944;11.010;2023-07-16T11:49:55;22.40;59.00
39655;DHT22;25336;59.944;11.010;2023-07-16T11:52:26;22.20;59.20
39655;DHT22;25336;59.944;11.010;2023-07-16T11:54:52;22.10;59.40
39655;DHT22;25336;59.944;11.010;2023-07-16T11:57:18;22.00;59.60
39655;DHT22;25336;59.944;11.010;2023-07-16T11:59:44;22.00;59.90
39655;DHT22;25336;59.944;11.010;2023-07-16T12:02:10;21.90;60.30
39655;DHT22;25336;59.944;11.010;2023-07-16T12:04:36;21.90;60.50
39655;DHT22;25336;59.944;11.010;2023-07-16T12:07:02;21.90;60.80
39655;DHT22;25336;59.944;11.010;2023-07-16T12:09:28;21.90;60.70
39655;DHT22;25336;59.944;11.010;2023-07-16T12:11:53;21.90;60.30
39655;DHT22;25336;59.944;11.010;2023-07-16T12:14:19;21.90;60.00
39655;DHT22;25336;59.944;11.010;2023-07-16T12:16:45;21.90;59.90
39655;DHT22;25336;59.944;11.010;2023-07-16T12:19:11;21.80;60.00
39655;DHT22;25336;59.944;11.010;2023-07-16T12:21:36;21.00;59.60
39655;DHT22;25336;59.944;11.010;2023-07-16T12:24:02;21.70;59.90
39655;DHT22;25336;59.944;11.010;2023-07-16T12:26:28;21.60;60.50
39655;DHT22;25336;59.944;11.010;2023-07-16T12:28:54;21.50;61.10
39655;DHT22;25336;59.944;11.010;2023-07-16T12:31:20;21.50;62.10
39655;DHT22;25336;59.944;11.010;2023-07-16T12:33:46;21.40;62.50
39655;DHT22;25336;59.944;11.010;2023-07-16T12:36:12;21.40;62.50
39655;DHT22;25336;59.944;11.010;2023-07-16T12:38:38;21.40;62.50
39655;DHT22;25336;59.944;11.010;2023-07-16T12:41:05;21.40;62.00
39655;DHT22;25336;59.944;11.010;2023-07-16T12:43:30;21.40;62.10
39655;DHT22;25336;59.944;11.010;2023-07-16T12:46:03;21.40;61.80
39655;DHT22;25336;59.944;11.010;2023-07-16T12:48:29;21.40;61.80
39655;DHT22;25336;59.944;11.010;2023-07-16T12:50:55;21.30;61.60
39655;DHT22;25336;59.944;11.010;2023-07-16T12:53:21;21.10;61.70
39655;DHT22;25336;59.944;11.010;2023-07-16T12:55:47;21.00;62.30
39655;DHT22;25336;59.944;11.010;2023-07-16T12:58:13;20.90;62.70
39655;DHT22;25336;59.944;11.010;2023-07-16T13:00:38;20.80;63.30
39655;DHT22;25336;59.944;11.010;2023-07-16T13:03:04;20.70;63.50
39655;DHT22;25336;59.944;11.010;2023-07-16T13:05:30;20.70;63.70
39655;DHT22;25336;59.944;11.010;2023-07-16T13:07:56;20.60;63.90
39655;DHT22;25336;59.944;11.010;2023-07-16T13:10:23;20.60;64.50
39655;DHT22;25336;59.944;11.010;2023-07-16T13:12:48;20.60;64.90
39655;DHT22;25336;59.944;11.010;2023-07-16T13:15:14;20.50;65.40
39655;DHT22;25336;59.944;11.010;2023-07-16T13:17:40;20.50;65.50
39655;DHT22;25336;59.944;11.010;2023-07-16T13:20:06;20.50;65.90
39655;DHT22;25336;59.944;11.010;2023-07-16T13:22:32;20.60;66.30
39655;DHT22;25336;59.944;11.010;2023-07-16T13:24:58;20.60;66.90
39655;DHT22;25336;59.944;11.010;2023-07-16T13:27:25;20.70;66.60
39655;DHT22;25336;59.944;11.010;2023-07-16T13:29:50;20.80;66.00
39655;DHT22;25336;59.944;11.010;2023-07-16T13:32:16;20.80;65.20
39655;DHT22;25336;59.944;11.010;2023-07-16T13:34:42;20.90;64.80
39655;DHT22;25336;59.944;11.010;2023-07-16T13:37:08;20.90;64.10
39655;DHT22;25336;59.944;11.010;2023-07-16T13:39:34;20.90;63.50
39655;DHT22;25336;59.944;11.010;2023-07-16T13:41:59;20.80;63.50
39655;DHT22;25336;59.944;11.010;2023-07-16T13:44:25;20.80;63.80
39655;DHT22;25336;59.944;11.010;2023-07-16T13:46:51;20.80;64.30
39655;DHT22;25336;59.944;11.010;2023-07-16T13:49:16;20.80;64.90
39655;DHT22;25336;59.944;11.010;2023-07-16T13:51:42;20.80;65.00
39655;DHT22;25336;59.944;11.010;2023-07-16T13:54:09;20.80;64.90
39655;DHT22;25336;59.944;11.010;2023-07-16T13:56:35;20.90;64.70
39655;DHT22;25336;59.944;11.010;2023-07-16T13:59:00;20.90;64.70
39655;DHT22;25336;59.944;11.010;2023-07-16T14:01:26;20.80;65.50
39655;DHT22;25336;59.944;11.010;2023-07-16T14:03:51;20.80;65.60
39655;DHT22;25336;59.944;11.010;2023-07-16T14:06:18;20.80;64.90
39655;DHT22;25336;59.944;11.010;2023-07-16T14:08:43;20.70;64.90
39655;DHT22;25336;59.944;11.010;2023-07-16T14:11:09;20.60;64.80
39655;DHT22;25336;59.944;11.010;2023-07-16T14:13:35;20.50;64.70
39655;DHT22;25336;59.944;11.010;2023-07-16T14:16:00;20.50;65.30
39655;DHT22;25336;59.944;11.010;2023-07-16T14:18:26;20.40;66.20
39655;DHT22;25336;59.944;11.010;2023-07-16T14:20:52;20.50;66.50
39655;DHT22;25336;59.944;11.010;2023-07-16T14:23:17;20.40;66.30
39655;DHT22;25336;59.944;11.010;2023-07-16T14:25:43;20.50;67.60
39655;DHT22;25336;59.944;11.010;2023-07-16T14:28:09;20.50;66.70
39655;DHT22;25336;59.944;11.010;2023-07-16T14:30:34;21.00;67.10
39655;DHT22;25336;59.944;11.010;2023-07-16T14:33:00;20.60;67.20
39655;DHT22;25336;59.944;11.010;2023-07-16T14:35:29;20.60;67.50
39655;DHT22;25336;59.944;11.010;2023-07-16T14:37:55;20.80;67.70
39655;DHT22;25336;59.944;11.010;2023-07-16T14:40:21;20.80;67.40
39655;DHT22;25336;59.944;11.010;2023-07-16T14:42:46;20.90;66.90
39655;DHT22;25336;59.944;11.010;2023-07-16T14:45:12;21.00;66.20
39655;DHT22;25336;59.944;11.010;2023-07-16T14:47:40;21.10;65.80
39655;DHT22;25336;59.944;11.010;2023-07-16T14:50:06;21.10;65.10
39655;DHT22;25336;59.944;11.010;2023-07-16T14:52:31;21.10;64.60
39655;DHT22;25336;59.944;11.010;2023-07-16T14:54:57;21.10;64.40
39655;DHT22;25336;59.944;11.010;2023-07-16T14:57:23;21.10;63.90
39655;DHT22;25336;59.944;11.010;2023-07-16T14:59:48;21.10;64.10
39655;DHT22;25336;59.944;11.010;2023-07-16T15:02:14;21.10;64.50
39655;DHT22;25336;59.944;11.010;2023-07-16T15:04:39;21.20;64.30
39655;DHT22;25336;59.944;11.010;2023-07-16T15:07:05;21.20;64.00
39655;DHT22;25336;59.944;11.010;2023-07-16T15:09:31;21.20;63.30
39655;DHT22;25336;59.944;11.010;2023-07-16T15:11:57;21.30;63.00
39655;DHT22;25336;59.944;11.010;2023-07-16T15:14:22;21.30;62.30
39655;DHT22;25336;59.944;11.010;2023-07-16T15:16:48;21.30;61.70
39655;DHT22;25336;59.944;11.010;2023-07-16T15:19:14;21.20;61.30
39655;DHT22;25336;59.944;11.010;2023-07-16T15:21:42;21.20;61.10